createdAt,value
2023-04-19T00:01:05.071Z,10.27
2023-04-19T00:03:31.603Z,10.25
2023-04-19T00:05:58.164Z,10.24
2023-04-19T00:08:24.475Z,10.32
2023-04-19T00:10:50.796Z,10.33
2023-04-19T00:13:17.106Z,10.30
2023-04-19T00:15:43.437Z,10.28
2023-04-19T00:18:09.845Z,10.09
2023-04-19T00:20:36.186Z,10.18
2023-04-19T00:23:02.524Z,10.08
2023-04-19T00:25:28.845Z,10.02
2023-04-19T00:27:55.165Z,9.96
2023-04-19T00:30:21.479Z,10.05
2023-04-19T00:32:47.860Z,10.10
2023-04-19T00:35:14.202Z,10.08
2023-04-19T00:37:40.502Z,10.04
2023-04-19T00:40:06.819Z,9.99
2023-04-19T00:42:33.125Z,10.06
2023-04-19T00:44:59.446Z,10.02
2023-04-19T00:47:25.812Z,9.89
2023-04-19T00:49:52.149Z,10.01
2023-04-19T00:52:18.443Z,9.97
2023-04-19T00:54:44.770Z,10.00
2023-04-19T00:57:11.073Z,9.93
2023-04-19T00:59:37.371Z,9.96
2023-04-19T01:02:03.843Z,9.97
2023-04-19T01:04:30.300Z,9.88
2023-04-19T01:06:56.646Z,9.80
2023-04-19T01:09:22.974Z,9.87
2023-04-19T01:11:49.271Z,9.84
2023-04-19T01:14:15.879Z,9.87
2023-04-19T01:16:42.429Z,9.85
2023-04-19T01:19:08.730Z,9.90
2023-04-19T01:21:35.026Z,9.87
2023-04-19T01:24:01.465Z,9.77
2023-04-19T01:26:27.807Z,9.79
2023-04-19T01:28:54.104Z,9.70
2023-04-19T01:31:20.522Z,9.67
2023-04-19T01:33:46.882Z,9.63
2023-04-19T01:36:13.193Z,9.76
2023-04-19T01:38:39.592Z,9.65
2023-04-19T01:41:05.892Z,9.75
2023-04-19T01:43:32.186Z,9.80
2023-04-19T01:45:58.514Z,9.83
2023-04-19T01:48:24.905Z,9.78
2023-04-19T01:50:51.202Z,9.80
2023-04-19T01:53:17.534Z,9.89
2023-04-19T01:55:43.836Z,9.74
2023-04-19T01:58:10.195Z,9.83
2023-04-19T02:00:36.547Z,9.85
2023-04-19T02:03:03.017Z,9.99
2023-04-19T02:05:29.413Z,9.94
2023-04-19T02:07:55.748Z,9.77
2023-04-19T02:10:22.046Z,9.85
2023-04-19T02:12:48.351Z,9.84
2023-04-19T02:15:14.666Z,9.75
2023-04-19T02:17:41.037Z,9.62
2023-04-19T02:20:07.361Z,9.68
2023-04-19T02:22:33.706Z,9.92
2023-04-19T02:25:00.019Z,9.88
2023-04-19T02:27:26.328Z,9.66
2023-04-19T02:29:52.701Z,9.68
2023-04-19T02:32:19.059Z,9.71
2023-04-19T02:34:45.349Z,9.58
2023-04-19T02:37:11.684Z,9.58
2023-04-19T02:39:37.988Z,9.66
2023-04-19T02:42:04.300Z,9.71
2023-04-19T02:44:30.630Z,9.59
2023-04-19T02:46:56.933Z,9.61
2023-04-19T02:49:23.230Z,9.57
2023-04-19T02:51:49.546Z,9.70
2023-04-19T02:54:16.020Z,9.67
2023-04-19T02:56:42.452Z,9.68
2023-04-19T02:59:08.773Z,9.66
2023-04-19T03:01:35.090Z,9.63
2023-04-19T03:04:01.442Z,9.52
2023-04-19T03:06:27.823Z,9.60
2023-04-19T03:08:54.143Z,9.45
2023-04-19T03:11:20.447Z,9.59
2023-04-19T03:13:46.763Z,9.58
2023-04-19T03:16:13.083Z,9.65
2023-04-19T03:18:39.493Z,9.52
2023-04-19T03:21:05.815Z,9.60
2023-04-19T03:23:32.128Z,9.43
2023-04-19T03:25:58.471Z,9.32
2023-04-19T03:28:24.786Z,9.50
2023-04-19T03:30:51.137Z,9.31
2023-04-19T03:33:17.468Z,9.42
2023-04-19T03:35:43.829Z,9.65
2023-04-19T03:38:10.217Z,9.61
2023-04-19T03:40:36.527Z,9.57
2023-04-19T03:43:02.847Z,9.58
2023-04-19T03:45:29.162Z,9.55
2023-04-19T03:47:55.489Z,9.61
2023-04-19T03:50:21.839Z,9.72
2023-04-19T03:52:48.164Z,9.89
2023-04-19T03:55:14.463Z,9.50
2023-04-19T03:57:40.780Z,9.61
2023-04-19T04:00:07.103Z,9.51
2023-04-19T04:02:33.531Z,9.65
2023-04-19T04:05:00.015Z,9.80
2023-04-19T04:07:26.414Z,9.58
2023-04-19T04:09:52.708Z,9.59
2023-04-19T04:12:19.032Z,9.55
2023-04-19T04:14:45.343Z,9.73
2023-04-19T04:17:11.642Z,9.53
2023-04-19T04:19:37.992Z,9.40
2023-04-19T04:22:04.306Z,9.53
2023-04-19T04:24:30.605Z,9.34
2023-04-19T04:26:56.918Z,9.49
2023-04-19T04:29:23.218Z,9.63
2023-04-19T04:31:49.544Z,9.84
2023-04-19T04:34:16.115Z,9.60
2023-04-19T04:36:42.625Z,9.81
2023-04-19T04:39:08.931Z,9.63
2023-04-19T04:41:35.285Z,9.82
2023-04-19T04:46:30.847Z,9.83
2023-04-19T04:48:57.178Z,9.82
2023-04-19T04:51:23.483Z,9.92
2023-04-19T04:53:49.801Z,9.96
2023-04-19T04:56:16.214Z,9.86
2023-04-19T04:58:42.518Z,9.75
2023-04-19T05:01:08.855Z,9.64
2023-04-19T05:03:35.275Z,9.52
2023-04-19T05:06:01.636Z,9.52
2023-04-19T05:08:27.964Z,9.54
2023-04-19T05:10:54.290Z,9.62
2023-04-19T05:13:20.611Z,9.82
2023-04-19T05:15:46.927Z,9.84
2023-04-19T05:18:13.335Z,9.72
2023-04-19T05:20:39.633Z,9.64
2023-04-19T05:23:05.938Z,9.66
2023-04-19T05:25:32.262Z,9.75
2023-04-19T05:27:59.780Z,9.73
2023-04-19T05:30:26.084Z,9.77
2023-04-19T05:32:52.448Z,9.80
2023-04-19T05:35:18.764Z,9.75
2023-04-19T05:37:45.063Z,9.67
2023-04-19T05:40:11.402Z,9.84
2023-04-19T05:42:37.728Z,9.73
2023-04-19T05:45:06.005Z,9.69
2023-04-19T05:47:32.685Z,9.71
2023-04-19T05:49:59.001Z,9.70
2023-04-19T05:52:25.307Z,9.81
2023-04-19T05:54:51.644Z,9.72
2023-04-19T05:57:17.954Z,9.64
2023-04-19T05:59:44.307Z,9.70
2023-04-19T06:02:10.826Z,9.80
2023-04-19T06:04:37.604Z,9.90
2023-04-19T06:07:06.231Z,9.84
2023-04-19T06:09:34.582Z,9.78
2023-04-19T06:12:01.092Z,9.82
2023-04-19T06:14:27.431Z,9.63
2023-04-19T06:16:53.755Z,9.62
2023-04-19T06:19:20.058Z,9.62
2023-04-19T06:21:46.358Z,9.64
2023-04-19T06:24:12.680Z,9.73
2023-04-19T06:26:39.039Z,9.84
2023-04-19T06:29:05.334Z,9.60
2023-04-19T06:31:31.667Z,9.61
2023-04-19T06:33:57.996Z,9.49
2023-04-19T06:36:24.319Z,9.74
2023-04-19T06:38:50.656Z,9.74
2023-04-19T06:41:16.961Z,9.64
2023-04-19T06:43:43.266Z,9.60
2023-04-19T06:46:09.638Z,9.73
2023-04-19T06:48:36.029Z,9.77
2023-04-19T06:51:02.345Z,9.85
2023-04-19T06:53:28.718Z,9.85
2023-04-19T06:55:55.041Z,9.73
2023-04-19T06:58:21.342Z,9.64
2023-04-19T07:00:47.677Z,9.77
2023-04-19T07:03:14.156Z,9.70
2023-04-19T07:05:40.718Z,10.08
2023-04-19T07:08:07.043Z,9.63
2023-04-19T07:10:33.397Z,10.00
2023-04-19T07:12:59.686Z,9.82
2023-04-19T07:15:26.007Z,9.76
2023-04-19T07:17:52.373Z,9.70
2023-04-19T07:20:18.841Z,9.87
2023-04-19T07:22:45.210Z,9.84
2023-04-19T07:25:11.522Z,9.77
2023-04-19T07:27:37.828Z,9.69
2023-04-19T07:30:04.171Z,9.78
2023-04-19T07:32:30.635Z,9.97
2023-04-19T07:34:57.016Z,9.96
2023-04-19T07:37:23.416Z,10.00
2023-04-19T07:39:49.725Z,9.85
2023-04-19T07:42:16.039Z,9.88
2023-04-19T07:44:42.375Z,9.89
2023-04-19T07:47:08.691Z,10.15
2023-04-19T07:49:35.018Z,10.26
2023-04-19T07:52:01.344Z,10.33
2023-04-19T07:54:27.654Z,10.17
2023-04-19T07:56:53.995Z,10.21
2023-04-19T07:59:20.371Z,10.20
2023-04-19T08:01:46.742Z,10.11
2023-04-19T08:04:13.280Z,10.29
2023-04-19T08:06:39.823Z,10.57
2023-04-19T08:09:06.152Z,10.27
2023-04-19T08:11:32.454Z,10.18
2023-04-19T08:14:09.409Z,10.05
2023-04-19T08:19:14.030Z,10.09
2023-04-19T08:21:41.511Z,10.00
2023-04-19T08:24:08.162Z,9.93
2023-04-19T08:26:34.503Z,10.32
2023-04-19T08:29:00.811Z,10.50
2023-04-19T08:31:27.158Z,10.31
2023-04-19T08:33:53.498Z,10.17
2023-04-19T08:36:25.543Z,10.15
2023-04-19T08:39:05.727Z,10.39
2023-04-19T08:41:33.148Z,10.60
2023-04-19T08:43:59.497Z,10.70
2023-04-19T08:46:25.837Z,10.67
2023-04-19T08:48:52.204Z,11.13
2023-04-19T08:51:18.621Z,10.78
2023-04-19T08:53:44.948Z,11.19
2023-04-19T08:56:21.063Z,11.56
2023-04-19T08:59:07.461Z,11.72
2023-04-19T09:01:42.904Z,11.27
2023-04-19T09:04:34.882Z,11.74
2023-04-19T09:06:57.072Z,11.85
2023-04-19T09:11:52.604Z,11.86
2023-04-19T09:14:18.971Z,11.86
2023-04-19T09:16:45.297Z,11.71
2023-04-19T09:19:23.122Z,11.93
2023-04-19T09:21:50.875Z,12.09
2023-04-19T09:24:17.176Z,12.02
2023-04-19T09:26:43.479Z,12.39
2023-04-19T09:29:10.027Z,12.42
2023-04-19T09:31:50.699Z,12.52
2023-04-19T09:34:18.350Z,12.43
2023-04-19T09:36:44.650Z,12.54
2023-04-19T09:39:10.982Z,12.65
2023-04-19T09:41:38.966Z,12.46
2023-04-19T09:46:34.200Z,12.13
2023-04-19T09:49:03.989Z,11.85
2023-04-19T09:51:35.676Z,12.39
2023-04-19T09:54:01.992Z,12.63
2023-04-19T09:56:28.300Z,12.51
2023-04-19T09:58:58.899Z,12.39
2023-04-19T10:01:35.021Z,12.51
2023-04-19T10:04:14.331Z,12.42
2023-04-19T10:07:13.864Z,12.84
2023-04-19T10:09:35.708Z,13.14
2023-04-19T10:12:21.006Z,12.83
2023-04-19T10:14:50.354Z,12.92
2023-04-19T10:17:16.800Z,13.06
2023-04-19T10:19:43.149Z,12.47
2023-04-19T10:22:09.472Z,12.88
2023-04-19T10:24:35.804Z,13.06
2023-04-19T10:27:02.121Z,12.76
2023-04-19T10:29:28.434Z,12.80
2023-04-19T10:31:54.785Z,12.64
2023-04-19T10:34:21.121Z,12.66
2023-04-19T10:36:47.441Z,12.60
2023-04-19T10:39:13.885Z,12.91
2023-04-19T10:41:40.327Z,13.02
2023-04-19T10:44:06.634Z,13.23
2023-04-19T10:46:33.039Z,13.50
2023-04-19T10:48:59.424Z,13.46
2023-04-19T10:51:25.744Z,13.72
2023-04-19T10:53:52.064Z,13.91
2023-04-19T10:56:18.356Z,13.90
2023-04-19T10:58:44.953Z,14.13
2023-04-19T11:01:12.323Z,13.73
2023-04-19T11:03:38.791Z,13.87
2023-04-19T11:06:05.219Z,14.00
2023-04-19T11:08:31.583Z,14.14
2023-04-19T11:10:57.880Z,14.35
2023-04-19T11:13:24.189Z,14.44
2023-04-19T11:15:50.550Z,14.18
2023-04-19T11:18:16.906Z,14.67
2023-04-19T11:20:43.262Z,14.24
2023-04-19T11:23:09.594Z,13.94
2023-04-19T11:25:35.939Z,14.34
2023-04-19T11:28:02.237Z,14.33
2023-04-19T11:30:28.570Z,14.75
2023-04-19T11:32:54.914Z,14.82
2023-04-19T11:35:21.259Z,15.39
2023-04-19T11:37:47.588Z,14.46
2023-04-19T11:40:13.911Z,14.61
2023-04-19T11:42:40.205Z,14.18
2023-04-19T11:45:13.183Z,14.68
2023-04-19T11:47:45.301Z,14.73
2023-04-19T11:50:11.655Z,14.84
2023-04-19T11:52:37.960Z,14.67
2023-04-19T11:55:04.280Z,15.50
2023-04-19T11:57:30.650Z,15.60
2023-04-19T11:59:56.989Z,15.29
2023-04-19T12:02:23.411Z,15.40
2023-04-19T12:04:49.949Z,15.69
2023-04-19T12:07:16.370Z,14.80
2023-04-19T12:09:42.677Z,14.49
2023-04-19T12:12:09.128Z,14.89
2023-04-19T12:14:35.458Z,15.31
2023-04-19T12:17:01.865Z,14.71
2023-04-19T12:19:28.309Z,14.86
2023-04-19T12:21:54.612Z,15.28
2023-04-19T12:24:20.924Z,15.14
2023-04-19T12:26:47.241Z,15.50
2023-04-19T12:29:13.660Z,15.62
2023-04-19T12:31:40.183Z,14.80
2023-04-19T12:34:06.535Z,14.43
2023-04-19T12:36:32.851Z,13.88
2023-04-19T12:38:59.153Z,14.23
2023-04-19T12:41:25.476Z,14.93
2023-04-19T12:43:51.785Z,13.95
2023-04-19T12:46:18.129Z,14.73
2023-04-19T12:48:44.493Z,14.49
2023-04-19T12:51:10.794Z,14.93
2023-04-19T12:53:37.095Z,14.76
2023-04-19T12:56:03.423Z,14.60
2023-04-19T12:58:29.727Z,14.66
2023-04-19T13:00:56.024Z,14.96
2023-04-19T13:03:22.602Z,14.77
2023-04-19T13:05:49.085Z,14.87
2023-04-19T13:08:15.438Z,14.85
2023-04-19T13:10:41.775Z,14.60
2023-04-19T13:13:08.082Z,14.56
2023-04-19T13:15:34.402Z,14.84
2023-04-19T13:18:00.802Z,14.74
2023-04-19T13:20:27.141Z,14.92
2023-04-19T13:22:53.517Z,14.45
2023-04-19T13:25:19.899Z,14.72
2023-04-19T13:27:46.197Z,14.78
2023-04-19T13:30:12.500Z,14.97
2023-04-19T13:32:38.855Z,14.91
2023-04-19T13:35:05.210Z,14.76
2023-04-19T13:37:31.515Z,14.57
2023-04-19T13:40:10.707Z,14.55
2023-04-19T13:42:44.135Z,14.23
2023-04-19T13:45:10.476Z,14.41
2023-04-19T13:47:36.881Z,14.11
2023-04-19T13:50:03.276Z,14.07
2023-04-19T13:52:29.647Z,14.53
2023-04-19T13:54:55.969Z,14.58
2023-04-19T13:57:22.278Z,14.30
2023-04-19T13:59:48.602Z,14.49
2023-04-19T14:02:15.093Z,14.13
2023-04-19T14:04:41.490Z,14.42
2023-04-19T14:07:07.822Z,14.07
2023-04-19T14:09:34.138Z,13.86
2023-04-19T14:12:00.449Z,14.39
2023-04-19T14:14:26.777Z,14.34
2023-04-19T14:16:53.251Z,14.37
2023-04-19T14:19:19.687Z,14.42
2023-04-19T14:21:46.075Z,14.32
2023-04-19T14:24:12.409Z,14.19
2023-04-19T14:26:38.749Z,14.26
2023-04-19T14:29:05.079Z,14.22
2023-04-19T14:31:31.414Z,14.41
2023-04-19T14:33:57.763Z,14.31
2023-04-19T14:36:24.076Z,14.27
2023-04-19T14:38:50.393Z,14.13
2023-04-19T14:41:16.702Z,14.17
2023-04-19T14:43:43.047Z,14.38
2023-04-19T14:46:09.393Z,14.47
2023-04-19T14:48:35.722Z,14.54
2023-04-19T14:51:02.068Z,14.35
2023-04-19T14:53:28.373Z,14.31
2023-04-19T14:55:54.685Z,14.29
2023-04-19T14:58:21.025Z,14.09
2023-04-19T15:00:47.327Z,14.23
2023-04-19T15:03:13.777Z,14.19
2023-04-19T15:05:40.220Z,14.02
2023-04-19T15:08:09.137Z,13.99
2023-04-19T15:10:41.085Z,14.20
2023-04-19T15:13:07.396Z,14.17
2023-04-19T15:15:33.717Z,14.22
2023-04-19T15:18:00.104Z,14.22
2023-04-19T15:20:26.476Z,14.41
2023-04-19T15:22:52.790Z,14.21
2023-04-19T15:25:19.151Z,14.39
2023-04-19T15:27:45.452Z,14.29
2023-04-19T15:30:11.769Z,14.23
2023-04-19T15:32:38.102Z,14.10
2023-04-19T15:35:04.442Z,14.07
2023-04-19T15:37:30.741Z,14.14
2023-04-19T15:39:57.064Z,14.32
2023-04-19T15:42:23.360Z,14.41
2023-04-19T15:44:49.660Z,14.14
2023-04-19T15:47:15.973Z,13.99
2023-04-19T15:49:42.275Z,13.91
2023-04-19T15:52:08.569Z,13.78
2023-04-19T15:54:34.870Z,13.82
2023-04-19T15:57:01.173Z,13.78
2023-04-19T15:59:27.473Z,13.82
2023-04-19T16:01:53.826Z,13.92
2023-04-19T16:04:20.455Z,13.99
2023-04-19T16:06:46.842Z,14.04
2023-04-19T16:09:13.158Z,13.84
2023-04-19T16:11:39.449Z,13.84
2023-04-19T16:14:05.746Z,13.83
2023-04-19T16:16:32.122Z,13.66
2023-04-19T16:18:58.438Z,13.75
2023-04-19T16:21:24.747Z,13.83
2023-04-19T16:23:51.081Z,13.80
2023-04-19T16:26:17.382Z,13.70
2023-04-19T16:28:43.688Z,13.64
2023-04-19T16:31:10.042Z,13.47
2023-04-19T16:33:36.352Z,13.50
2023-04-19T16:36:02.651Z,13.55
2023-04-19T16:38:28.997Z,13.53
2023-04-19T16:40:55.324Z,13.55
2023-04-19T16:43:21.644Z,13.62
2023-04-19T16:45:48.010Z,13.58
2023-04-19T16:48:14.355Z,13.55
2023-04-19T16:50:40.678Z,13.62
2023-04-19T16:53:07.015Z,13.50
2023-04-19T16:55:33.324Z,13.50
2023-04-19T16:57:59.615Z,13.42
2023-04-19T17:00:25.945Z,13.49
2023-04-19T17:02:52.315Z,13.34
2023-04-19T17:05:18.658Z,13.42
2023-04-19T17:07:44.968Z,13.52
2023-04-19T17:10:11.254Z,13.26
2023-04-19T17:12:37.558Z,13.33
2023-04-19T17:15:03.885Z,13.36
2023-04-19T17:17:30.246Z,13.49
2023-04-19T17:19:56.871Z,13.40
2023-04-19T17:22:23.303Z,13.52
2023-04-19T17:24:49.600Z,13.52
2023-04-19T17:27:15.901Z,13.50
2023-04-19T17:29:42.232Z,13.43
2023-04-19T17:32:08.530Z,13.46
2023-04-19T17:34:36.758Z,13.54
2023-04-19T17:37:03.465Z,13.57
2023-04-19T17:39:29.775Z,13.41
2023-04-19T17:41:56.088Z,13.45
2023-04-19T17:44:22.410Z,13.40
2023-04-19T17:46:48.732Z,13.48
2023-04-19T17:49:15.277Z,13.30
2023-04-19T17:51:41.799Z,13.42
2023-04-19T17:54:08.115Z,13.41
2023-04-19T17:56:34.414Z,13.49
2023-04-19T17:59:00.753Z,13.34
2023-04-19T18:01:27.194Z,13.47
2023-04-19T18:03:53.793Z,13.29
2023-04-19T18:06:20.358Z,13.30
2023-04-19T18:08:46.663Z,13.20
2023-04-19T18:11:12.969Z,13.26
2023-04-19T18:13:39.374Z,13.15
2023-04-19T18:16:05.714Z,13.22
2023-04-19T18:18:32.030Z,13.37
2023-04-19T18:20:58.358Z,13.32
2023-04-19T18:23:24.661Z,13.36
2023-04-19T18:25:50.977Z,13.33
2023-04-19T18:28:17.295Z,13.31
2023-04-19T18:30:43.592Z,13.17
2023-04-19T18:33:09.980Z,13.05
2023-04-19T18:35:36.385Z,12.91
2023-04-19T18:38:02.675Z,12.89
2023-04-19T18:40:28.973Z,12.74
2023-04-19T18:42:55.338Z,12.76
2023-04-19T18:45:21.643Z,12.63
2023-04-19T18:47:48.016Z,12.77
2023-04-19T18:50:18.616Z,12.81
2023-04-19T18:52:45.624Z,12.52
2023-04-19T18:55:11.935Z,12.43
2023-04-19T18:57:38.264Z,12.44
2023-04-19T19:00:04.564Z,12.52
2023-04-19T19:02:31.159Z,12.51
2023-04-19T19:05:01.026Z,12.57
2023-04-19T19:07:36.120Z,12.41
2023-04-19T19:10:09.649Z,12.33
2023-04-19T19:12:42.920Z,12.48
2023-04-19T19:15:09.252Z,12.41
2023-04-19T19:17:35.634Z,12.32
2023-04-19T19:20:02.079Z,12.43
2023-04-19T19:22:29.171Z,12.48
2023-04-19T19:24:55.640Z,12.46
2023-04-19T19:27:21.984Z,12.45
2023-04-19T19:29:48.310Z,12.45
2023-04-19T19:32:14.586Z,12.52
2023-04-19T19:34:53.818Z,12.31
2023-04-19T19:37:22.398Z,12.30
2023-04-19T19:39:48.703Z,12.38
2023-04-19T19:42:15.034Z,12.55
2023-04-19T19:44:41.394Z,12.43
2023-04-19T19:47:10.219Z,12.55
2023-04-19T19:49:51.580Z,12.84
2023-04-19T19:52:23.449Z,12.81
2023-04-19T19:54:49.748Z,12.75
2023-04-19T19:59:51.601Z,12.71
2023-04-19T20:02:21.899Z,12.68
2023-04-19T20:04:48.857Z,12.85
2023-04-19T20:09:44.966Z,12.99
2023-04-19T20:12:11.453Z,12.91
2023-04-19T20:14:37.763Z,12.93
2023-04-19T20:17:04.056Z,12.84
2023-04-19T20:19:30.361Z,12.92
2023-04-19T20:21:56.656Z,12.86
2023-04-19T20:24:22.948Z,12.80
2023-04-19T20:26:49.272Z,12.90
2023-04-19T20:29:15.959Z,12.68
2023-04-19T20:31:42.420Z,12.45
2023-04-19T20:34:08.786Z,12.52
2023-04-19T20:36:35.133Z,12.37
2023-04-19T20:39:01.485Z,12.31
2023-04-19T20:41:27.797Z,12.54
2023-04-19T20:43:54.104Z,12.19
2023-04-19T20:46:20.425Z,12.62
2023-04-19T20:48:46.825Z,12.40
2023-04-19T20:51:13.120Z,11.99
2023-04-19T20:53:39.427Z,11.85
2023-04-19T20:56:05.763Z,11.80
2023-04-19T20:58:32.113Z,11.80
2023-04-19T21:00:58.442Z,11.53
2023-04-19T21:03:24.907Z,11.60
2023-04-19T21:05:51.274Z,11.59
2023-04-19T21:08:17.567Z,11.53
2023-04-19T21:10:43.880Z,11.74
2023-04-19T21:13:10.171Z,11.84
2023-04-19T21:15:36.474Z,11.75
2023-04-19T21:18:02.856Z,11.85
2023-04-19T21:20:29.195Z,11.84
2023-04-19T21:22:55.494Z,11.68
2023-04-19T21:25:21.809Z,11.43
2023-04-19T21:27:48.111Z,11.48
2023-04-19T21:30:14.415Z,11.49
2023-04-19T21:32:40.794Z,11.39
2023-04-19T21:35:07.156Z,11.31
2023-04-19T21:37:33.467Z,11.22
2023-04-19T21:39:59.780Z,11.28
2023-04-19T21:42:26.102Z,11.03
2023-04-19T21:44:52.399Z,10.99
2023-04-19T21:47:18.860Z,10.94
2023-04-19T21:49:45.174Z,10.64
2023-04-19T21:52:11.471Z,10.65
2023-04-19T21:54:37.829Z,10.27
2023-04-19T21:57:04.135Z,10.19
2023-04-19T21:59:30.451Z,10.18
2023-04-19T22:01:56.935Z,10.20
2023-04-19T22:04:23.335Z,10.14
2023-04-19T22:06:49.661Z,10.05
2023-04-19T22:09:16.151Z,9.78
2023-04-19T22:11:42.626Z,9.51
2023-04-19T22:14:08.927Z,9.23
2023-04-19T22:16:35.342Z,9.29
2023-04-19T22:19:01.738Z,8.94
2023-04-19T22:21:28.034Z,9.08
2023-04-19T22:23:54.357Z,8.86
2023-04-19T22:26:20.649Z,8.95
2023-04-19T22:28:46.930Z,9.07
2023-04-19T22:31:13.246Z,8.91
2023-04-19T22:33:39.538Z,8.62
2023-04-19T22:36:05.827Z,8.54
2023-04-19T22:38:32.147Z,8.77
2023-04-19T22:40:58.438Z,8.94
2023-04-19T22:43:24.735Z,8.95
2023-04-19T22:45:51.103Z,8.82
2023-04-19T22:48:17.505Z,8.57
2023-04-19T22:50:43.798Z,8.69
2023-04-19T22:53:10.148Z,8.49
2023-04-19T22:55:36.441Z,8.21
2023-04-19T22:58:02.748Z,8.24
2023-04-19T23:00:29.155Z,8.46
2023-04-19T23:02:55.680Z,8.34
2023-04-19T23:05:22.103Z,8.27
2023-04-19T23:07:48.427Z,8.33
2023-04-19T23:10:14.729Z,8.45
2023-04-19T23:12:41.028Z,8.53
2023-04-19T23:15:07.377Z,8.23
2023-04-19T23:17:33.925Z,8.33
2023-04-19T23:20:00.284Z,8.52
2023-04-19T23:22:26.606Z,8.25
2023-04-19T23:24:52.916Z,8.14
2023-04-19T23:27:19.216Z,8.35
2023-04-19T23:29:45.558Z,8.32
2023-04-19T23:32:11.849Z,7.86
2023-04-19T23:34:38.290Z,7.85
2023-04-19T23:37:04.633Z,7.94
2023-04-19T23:39:30.983Z,7.97
2023-04-19T23:41:57.311Z,8.02
2023-04-19T23:44:23.665Z,7.72
2023-04-19T23:46:50.029Z,7.81
2023-04-19T23:49:16.552Z,7.92
2023-04-19T23:51:43.174Z,8.09
2023-04-19T23:54:09.465Z,8.02
2023-04-19T23:56:35.783Z,7.81
2023-04-19T23:59:02.118Z,7.75
